• Join FlightAware (Why Join?)
  • Login
  • US Flag 
11:30AM EDT


 

Airport Tracker/Info


-or-


 

Live Flight TrackerFlight Track Log ✈ N884FT ✈ 05-Nov-2013 ✈ KPIE - KMLB

Flight Track Log - Related Links

Times and Time Zones

All times are in EST time to prevent confusion due to time zone crossing. See the N884FT flight status page for this flight to view local times or setup timezone preferences in your user account.

Time Position Orientation Groundspeed Altitude Reporting Facility
EST Latitude Longitude Course Direction KTS MPH feet Rate Location/Type
09:08PM 27.9833 -82.7167 81° East 103 119 2,200  Level Tampa TRACON
09:09PM 27.9833 -82.7000 90° East 78 90 2,600 420 Climbing Tampa TRACON
09:10PM 27.9833 -82.6833 90° East 84 97 3,100 180 Climbing Tampa TRACON
09:11PM 27.9833 -82.6333 90° East 120 138 3,100  Level Tampa TRACON
09:11PM 27.9833 -82.6167 90° East 114 131 3,100  Level Tampa TRACON
09:12PM 27.9833 -82.5667 90° East 113 130 3,100 -60 Level Tampa TRACON
09:13PM 27.9327 -82.4043 81° East  Level FlightAware Approximate
09:14PM 27.9667 -82.5333 120° Southeast 117 135 3,000  Level Tampa TRACON
09:15PM 27.9667 -82.5000 90° East 113 130 3,000  Level Tampa TRACON
09:16PM 27.9667 -82.4667 90° East 111 128 3,000  Level Tampa TRACON
09:16PM 27.9667 -82.4333 90° East 119 137 3,000  Level Tampa TRACON
09:18PM 27.9667 -82.4000 90° East 108 124 3,000 180 Level Tampa TRACON
09:19PM 27.9667 -82.3667 90° East 97 112 3,400 540 Climbing Tampa TRACON
09:20PM 27.9667 -82.3333 90° East 84 97 4,300 660 Climbing Tampa TRACON
09:21PM 27.9667 -82.3167 90° East 92 106 4,800 600 Climbing Tampa TRACON
09:22PM 27.9667 -82.2833 90° East 97 112 5,500 600 Climbing Tampa TRACON
09:23PM 27.9667 -82.2500 90° East 104 120 6,000 120 Climbing Tampa TRACON
09:24PM 27.9667 -82.2167 90° East 80 92 5,800 -240 Descending Tampa TRACON
09:25PM 27.9667 -82.2000 90° East 84 97 5,600 180 Descending Tampa TRACON
09:26PM 27.9833 -82.1667 60° Northeast 101 116 6,200 600 Climbing Tampa TRACON
09:27PM 27.9833 -82.1333 90° East 105 121 6,800 540 Climbing Tampa TRACON
09:28PM 27.9833 -82.1000 90° East 113 130 7,300 480 Climbing Tampa TRACON
09:29PM 27.9833 -82.0667 90° East 118 136 7,800 360 Climbing Tampa TRACON
09:30PM 27.9833 -82.0000 90° East 129 148 8,400 300 Climbing Orlando TRACON
09:31PM 28.0000 -81.9500 69° East 143 165 8,700 240 Climbing Orlando TRACON
09:32PM 28.0000 -81.9000 90° East 132 152 9,000 120 Climbing Orlando TRACON
09:33PM 28.0167 -81.8667 60° Northeast 140 161 9,000  Level Orlando TRACON
09:34PM 28.0167 -81.8167 90° East 149 171 9,000  Level Orlando TRACON
09:35PM 28.0167 -81.7833 90° East 159 183 9,000  Level Orlando TRACON
09:36PM 28.0333 -81.7333 69° East 165 190 9,100 -60 Climbing Orlando TRACON
09:37PM 28.0333 -81.6667 90° East 163 188 8,900 -360 Descending Orlando TRACON
09:38PM 28.0333 -81.6167 90° East 171 197 8,400 -600 Descending Orlando TRACON
09:39PM 28.0500 -81.5667 69° East 176 203 7,800 -720 Descending Orlando TRACON
09:40PM 28.0500 -81.5167 90° East 170 196 7,000 -720 Descending Orlando TRACON
09:41PM 28.0667 -81.4667 69° East 139 160 6,400 -660 Descending Orlando TRACON
09:42PM 28.0667 -81.4167 90° East 134 154 5,700 -600 Descending Orlando TRACON
09:43PM 28.0667 -81.3833 90° East 135 155 5,200 -360 Descending Orlando TRACON
09:44PM 28.0667 -81.3500 90° East 116 133 5,000 -120 Descending Orlando TRACON
09:45PM 28.0833 -81.3000 69° East 119 137 5,000 -60 Level Orlando TRACON
09:46PM 28.0833 -81.2667 90° East 119 137 4,900 -360 Descending Orlando TRACON
09:47PM 28.0833 -81.2333 90° East 125 144 4,300 -480 Descending Orlando TRACON
09:48PM 28.0833 -81.2000 90° East 117 135 4,000 -240 Descending Orlando TRACON
09:49PM 28.0833 -81.1500 90° East 116 133 3,900 -300 Descending Orlando TRACON
09:50PM 28.0833 -81.1167 90° East 120 138 3,400 -480 Descending Orlando TRACON
09:51PM 28.0833 -81.0833 90° East 116 133 3,000 -240 Descending Orlando TRACON
09:52PM 28.0833 -81.0500 90° East 104 120 3,000  Level Orlando TRACON
09:53PM 28.0833 -81.0167 90° East 116 133 3,000  Level Orlando TRACON
09:54PM 28.0833 -80.9833 90° East 114 131 3,000 -180 Level Orlando TRACON
09:55PM 28.0667 -80.9500 120° Southeast 119 137 2,700 -540 Descending Orlando TRACON
09:56PM 28.0667 -80.9167 90° East 114 131 2,000 -540 Descending Orlando TRACON
09:57PM 28.0667 -80.8833 90° East 96 110 1,700 -300 Descending Orlando TRACON
09:58PM 28.0667 -80.8500 90° East 83 96 1,500  Descending Orlando TRACON
09:59PM 28.0833 -80.8333 41° Northeast 85 98 1,700 -180 Climbing Orlando TRACON
10:00PM 28.0833 -80.8000 90° East 87 100 1,200 -360 Descending Orlando TRACON
10:01PM 28.0833 -80.7833 90° East 73 84 1,000 -120 Descending Orlando TRACON
10:02PM 28.0833 -80.7500 90° East 76 87 1,000 -120 Level Orlando TRACON
10:03PM 28.1000 -80.7333 41° Northeast 80 92 800 -240 Descending Orlando TRACON
10:04PM 28.1000 -80.7000 90° East 86 99 600 -180 Descending Orlando TRACON
10:05PM 28.1000 -80.6833 90° East 67 77 500 -120 Descending Orlando TRACON